createdAt,value
2023-02-19T00:02:02.422Z,60.41
2023-02-19T00:04:31.840Z,59.88
2023-02-19T00:07:01.531Z,59.29
2023-02-19T00:09:28.269Z,59.62
2023-02-19T00:11:57.518Z,60.05
2023-02-19T00:14:27.229Z,60.00
2023-02-19T00:16:53.913Z,60.20
2023-02-19T00:23:06.028Z,60.48
2023-02-19T00:25:38.621Z,60.13
2023-02-19T00:28:05.674Z,60.06
2023-02-19T00:30:35.659Z,60.77
2023-02-19T00:33:04.656Z,61.20
2023-02-19T00:35:37.058Z,60.32
2023-02-19T00:38:04.926Z,60.35
2023-02-19T00:40:33.123Z,60.38
2023-02-19T00:43:02.238Z,60.23
2023-02-19T00:45:31.786Z,60.67
2023-02-19T00:48:00.824Z,60.46
2023-02-19T00:50:27.371Z,59.89
2023-02-19T00:52:59.639Z,60.50
2023-02-19T00:55:28.703Z,60.96
2023-02-19T00:57:55.308Z,60.81
2023-02-19T01:00:22.050Z,60.88
2023-02-19T01:02:51.463Z,60.96
2023-02-19T01:05:20.271Z,61.28
2023-02-19T01:07:46.878Z,60.64
2023-02-19T01:10:13.450Z,60.45
2023-02-19T01:12:40.121Z,59.75
2023-02-19T01:15:09.584Z,60.81
2023-02-19T01:17:38.930Z,61.03
2023-02-19T01:20:05.927Z,61.25
2023-02-19T01:22:32.780Z,61.38
2023-02-19T01:24:59.485Z,61.06
2023-02-19T01:27:28.359Z,61.47
2023-02-19T01:29:55.008Z,61.33
2023-02-19T01:32:24.061Z,61.29
2023-02-19T01:34:50.658Z,60.98
2023-02-19T01:37:17.381Z,61.13
2023-02-19T01:39:44.071Z,61.08
2023-02-19T01:42:19.033Z,61.01
2023-02-19T01:44:48.146Z,60.25
2023-02-19T01:47:21.769Z,60.76
2023-02-19T01:49:58.660Z,60.72
2023-02-19T01:52:34.067Z,61.51
2023-02-19T01:55:09.909Z,61.02
2023-02-19T01:57:42.566Z,61.32
2023-02-19T02:00:14.472Z,61.98
2023-02-19T02:02:45.931Z,62.20
2023-02-19T02:05:53.801Z,62.77
2023-02-19T02:08:42.458Z,63.32
2023-02-19T02:11:11.676Z,63.32
2023-02-19T02:13:40.496Z,63.81
2023-02-19T02:16:28.263Z,63.93
2023-02-19T02:19:10.034Z,64.67
2023-02-19T02:22:04.728Z,64.64
2023-02-19T02:24:51.991Z,64.11
2023-02-19T02:27:41.032Z,64.56
2023-02-19T02:30:34.849Z,64.22
2023-02-19T02:33:26.678Z,63.38
2023-02-19T02:35:58.308Z,63.68
2023-02-19T02:38:31.078Z,64.57
2023-02-19T02:41:00.515Z,64.73
2023-02-19T02:43:27.397Z,64.80
2023-02-19T02:45:57.370Z,63.75
2023-02-19T02:48:44.990Z,65.00
2023-02-19T02:51:14.663Z,65.58
2023-02-19T02:54:14.175Z,65.18
2023-02-19T02:56:45.298Z,66.01
2023-02-19T02:59:14.805Z,65.77
2023-02-19T03:02:11.877Z,66.06
2023-02-19T03:05:11.396Z,67.21
2023-02-19T03:08:10.104Z,67.40
2023-02-19T03:10:43.320Z,67.68
2023-02-19T03:13:40.808Z,67.51
2023-02-19T03:16:51.434Z,68.57
2023-02-19T03:19:22.728Z,68.01
2023-02-19T03:22:09.984Z,67.70
2023-02-19T03:25:04.349Z,68.27
2023-02-19T03:27:33.951Z,67.67
2023-02-19T03:30:09.750Z,68.03
2023-02-19T03:33:08.337Z,69.25
2023-02-19T03:36:00.367Z,68.82
2023-02-19T03:38:37.340Z,68.96
2023-02-19T03:41:12.382Z,68.01
2023-02-19T03:43:52.460Z,68.82
2023-02-19T03:46:37.051Z,68.61
2023-02-19T03:49:12.894Z,69.25
2023-02-19T03:51:55.378Z,69.35
2023-02-19T03:54:40.269Z,70.17
2023-02-19T03:57:23.395Z,69.37
2023-02-19T04:00:04.313Z,71.30
2023-02-19T04:02:41.451Z,70.84
2023-02-19T04:05:14.621Z,70.42
2023-02-19T04:07:46.614Z,71.29
2023-02-19T04:10:26.144Z,69.78
2023-02-19T04:13:04.616Z,70.09
2023-02-19T04:15:34.397Z,69.60
2023-02-19T04:18:09.314Z,69.16
2023-02-19T04:20:42.769Z,66.96
2023-02-19T04:23:09.683Z,67.45
2023-02-19T04:25:45.622Z,67.93
2023-02-19T04:28:19.562Z,69.95
2023-02-19T04:30:47.034Z,69.13
2023-02-19T04:33:13.920Z,69.82
2023-02-19T04:35:43.112Z,69.26
2023-02-19T04:38:12.352Z,69.32
2023-02-19T04:40:40.249Z,70.20
2023-02-19T04:43:11.671Z,70.85
2023-02-19T04:45:40.768Z,70.20
2023-02-19T04:48:07.270Z,71.38
2023-02-19T04:50:33.878Z,72.13
2023-02-19T04:53:05.480Z,73.39
2023-02-19T04:55:32.450Z,73.01
2023-02-19T04:58:04.296Z,73.58
2023-02-19T05:00:31.491Z,73.03
2023-02-19T05:03:01.173Z,73.37
2023-02-19T05:05:30.638Z,72.90
2023-02-19T05:07:59.905Z,74.17
2023-02-19T05:10:28.745Z,73.71
2023-02-19T05:13:00.520Z,73.84
2023-02-19T05:15:29.553Z,74.10
2023-02-19T05:17:56.474Z,74.03
2023-02-19T05:20:23.166Z,73.63
2023-02-19T05:22:52.154Z,73.35
2023-02-19T05:25:18.816Z,72.72
2023-02-19T05:27:47.780Z,73.16
2023-02-19T05:30:14.506Z,72.48
2023-02-19T05:32:44.019Z,72.73
2023-02-19T05:35:13.655Z,73.06
2023-02-19T05:37:43.317Z,73.22
2023-02-19T05:40:10.307Z,73.13
2023-02-19T05:42:39.192Z,72.74
2023-02-19T05:45:08.898Z,72.77
2023-02-19T05:47:35.493Z,73.31
2023-02-19T05:50:04.553Z,73.54
2023-02-19T05:52:31.027Z,74.13
2023-02-19T05:55:00.812Z,74.03
2023-02-19T05:57:32.475Z,73.82
2023-02-19T05:59:59.107Z,73.92
2023-02-19T06:02:34.577Z,74.46
2023-02-19T06:05:01.280Z,75.40
2023-02-19T06:07:30.230Z,75.44
2023-02-19T06:09:56.987Z,76.01
2023-02-19T06:12:26.064Z,75.19
2023-02-19T06:14:52.641Z,75.59
2023-02-19T06:17:21.360Z,74.93
2023-02-19T06:19:48.162Z,75.23
2023-02-19T06:22:16.181Z,77.34
2023-02-19T06:24:43.231Z,79.62
2023-02-19T06:27:10.140Z,83.91
2023-02-19T06:29:39.475Z,75.78
2023-02-19T06:32:09.310Z,75.32
2023-02-19T06:34:36.527Z,74.41
2023-02-19T06:37:08.070Z,75.07
2023-02-19T06:39:37.055Z,75.00
2023-02-19T06:42:03.863Z,74.87
2023-02-19T06:44:32.942Z,75.75
2023-02-19T06:47:02.043Z,78.47
2023-02-19T06:49:31.267Z,76.31
2023-02-19T06:52:02.323Z,78.29
2023-02-19T06:54:31.554Z,77.03
2023-02-19T06:57:00.665Z,77.15
2023-02-19T06:59:27.267Z,76.54
2023-02-19T07:01:54.022Z,77.07
2023-02-19T07:04:20.671Z,77.18
2023-02-19T07:06:47.243Z,77.38
2023-02-19T07:09:14.047Z,77.81
2023-02-19T07:11:43.534Z,79.59
2023-02-19T07:14:17.989Z,78.88
2023-02-19T07:16:47.452Z,78.76
2023-02-19T07:19:16.810Z,77.88
2023-02-19T07:21:48.554Z,76.80
2023-02-19T07:24:21.721Z,77.98
2023-02-19T07:26:50.806Z,77.78
2023-02-19T07:29:17.382Z,78.72
2023-02-19T07:31:44.316Z,78.29
2023-02-19T07:34:11.034Z,78.41
2023-02-19T07:36:40.588Z,78.19
2023-02-19T07:39:15.854Z,78.94
2023-02-19T07:41:45.025Z,79.23
2023-02-19T07:44:13.768Z,79.77
2023-02-19T07:46:40.386Z,79.83
2023-02-19T07:49:07.328Z,80.77
2023-02-19T07:51:36.157Z,79.97
2023-02-19T07:54:05.506Z,79.46
2023-02-19T07:56:34.281Z,79.02
2023-02-19T07:59:03.592Z,78.09
2023-02-19T08:02:06.077Z,77.92
2023-02-19T08:04:36.095Z,76.84
2023-02-19T08:07:05.995Z,76.09
2023-02-19T08:09:33.888Z,79.88
2023-02-19T08:12:32.215Z,79.02
2023-02-19T08:15:00.986Z,78.44
2023-02-19T08:17:27.770Z,80.47
2023-02-19T08:19:54.482Z,80.75
2023-02-19T08:22:23.805Z,82.12
2023-02-19T08:24:52.721Z,80.79
2023-02-19T08:27:21.710Z,82.88
2023-02-19T08:29:48.306Z,85.42
2023-02-19T08:32:14.957Z,88.36
2023-02-19T08:34:41.649Z,89.15
2023-02-19T08:37:08.212Z,90.30
2023-02-19T08:39:37.357Z,89.48
2023-02-19T08:42:03.989Z,90.50
2023-02-19T08:44:30.533Z,90.73
2023-02-19T08:46:57.225Z,91.22
2023-02-19T08:49:27.172Z,90.38
2023-02-19T08:51:56.331Z,90.66
2023-02-19T08:54:25.411Z,91.80
2023-02-19T08:56:54.618Z,91.89
2023-02-19T08:59:21.280Z,92.09
2023-02-19T09:01:50.082Z,91.72
2023-02-19T09:04:16.700Z,92.58
2023-02-19T09:06:51.111Z,93.39
2023-02-19T09:09:18.063Z,93.10
2023-02-19T09:11:44.852Z,93.41
2023-02-19T09:14:13.769Z,93.27
2023-02-19T09:16:42.901Z,92.29
2023-02-19T09:19:09.764Z,91.72
2023-02-19T09:21:38.441Z,91.20
2023-02-19T09:24:08.831Z,91.29
2023-02-19T09:26:38.745Z,92.23
2023-02-19T09:29:05.514Z,92.05
2023-02-19T09:31:37.447Z,92.19
2023-02-19T09:34:05.845Z,92.90
2023-02-19T09:36:35.320Z,92.52
2023-02-19T09:39:06.708Z,93.09
2023-02-19T09:41:37.940Z,92.63
2023-02-19T09:44:09.781Z,93.00
2023-02-19T09:46:44.104Z,91.85
2023-02-19T09:49:15.929Z,92.71
2023-02-19T09:51:54.027Z,92.36
2023-02-19T09:54:26.409Z,92.14
2023-02-19T09:56:59.967Z,91.40
2023-02-19T09:59:44.846Z,91.93
2023-02-19T10:02:31.607Z,91.05
2023-02-19T10:05:01.803Z,91.17
2023-02-19T10:07:50.375Z,89.85
2023-02-19T10:10:17.952Z,89.41
2023-02-19T10:12:51.189Z,88.79
2023-02-19T10:15:28.059Z,89.67
2023-02-19T10:17:57.541Z,89.28
2023-02-19T10:20:30.208Z,87.39
2023-02-19T10:23:09.312Z,85.89
2023-02-19T10:25:41.509Z,86.22
2023-02-19T10:28:15.169Z,84.88
2023-02-19T10:30:41.887Z,83.02
2023-02-19T10:33:15.253Z,82.71
2023-02-19T10:35:56.228Z,80.21
2023-02-19T10:38:46.968Z,79.64
2023-02-19T10:41:21.388Z,78.53
2023-02-19T10:43:56.390Z,78.27
2023-02-19T10:46:35.930Z,76.98
2023-02-19T10:49:12.917Z,76.10
2023-02-19T10:51:41.480Z,75.89
2023-02-19T10:54:18.426Z,74.19
2023-02-19T10:56:47.314Z,74.81
2023-02-19T10:59:30.076Z,72.99
2023-02-19T11:02:02.571Z,71.62
2023-02-19T11:04:34.226Z,70.93
2023-02-19T11:07:19.635Z,69.56
2023-02-19T11:09:53.923Z,67.96
2023-02-19T11:12:29.589Z,66.99
2023-02-19T11:15:00.638Z,66.34
2023-02-19T11:17:31.402Z,65.89
2023-02-19T11:20:07.619Z,64.14
2023-02-19T11:22:37.517Z,61.95
2023-02-19T11:25:09.994Z,62.59
2023-02-19T11:28:08.212Z,62.87
2023-02-19T11:30:45.869Z,63.26
2023-02-19T11:33:27.559Z,61.07
2023-02-19T11:36:17.986Z,62.21
2023-02-19T11:38:47.298Z,60.56
2023-02-19T11:41:35.408Z,59.91
2023-02-19T11:44:12.499Z,59.70
2023-02-19T11:46:42.175Z,59.96
2023-02-19T11:49:25.289Z,60.04
2023-02-19T11:52:12.067Z,60.86
2023-02-19T11:54:57.906Z,59.77
2023-02-19T11:57:27.378Z,60.22
2023-02-19T12:00:12.676Z,58.53
2023-02-19T12:02:54.275Z,59.40
2023-02-19T12:05:35.488Z,60.29
2023-02-19T12:08:13.921Z,58.89
2023-02-19T12:11:05.535Z,58.26
2023-02-19T12:14:07.804Z,58.06
2023-02-19T12:16:39.583Z,56.61
2023-02-19T12:19:37.649Z,57.43
2023-02-19T12:22:19.173Z,57.58
2023-02-19T12:25:30.645Z,57.01
2023-02-19T12:28:29.206Z,56.95
2023-02-19T12:31:13.930Z,56.34
2023-02-19T12:34:51.728Z,56.90
2023-02-19T12:37:46.300Z,56.24
2023-02-19T12:40:22.116Z,56.71
2023-02-19T12:43:07.813Z,57.32
2023-02-19T12:45:46.860Z,57.09
2023-02-19T12:48:34.196Z,56.52
2023-02-19T12:51:25.615Z,56.71
2023-02-19T12:54:13.847Z,56.43
2023-02-19T12:56:45.812Z,56.61
2023-02-19T12:59:23.798Z,57.60
2023-02-19T13:02:26.930Z,62.12
2023-02-19T13:05:11.266Z,65.26
2023-02-19T13:07:59.829Z,67.75
2023-02-19T13:10:37.733Z,68.09
2023-02-19T13:13:12.540Z,67.45
2023-02-19T13:15:46.465Z,65.47
2023-02-19T13:18:19.017Z,65.59
2023-02-19T13:20:51.890Z,64.38
2023-02-19T13:23:48.704Z,61.80
2023-02-19T13:26:21.323Z,61.02
2023-02-19T13:29:06.428Z,61.10
2023-02-19T13:31:42.245Z,59.23
2023-02-19T13:34:24.303Z,57.80
2023-02-19T13:36:51.354Z,57.47
2023-02-19T13:39:22.648Z,57.88
2023-02-19T13:41:55.077Z,57.92
2023-02-19T13:44:33.605Z,57.69
2023-02-19T13:47:06.479Z,58.38
2023-02-19T13:49:34.010Z,59.46
2023-02-19T13:52:22.240Z,59.07
2023-02-19T13:54:48.860Z,59.95
2023-02-19T13:57:28.291Z,63.79
2023-02-19T13:59:58.581Z,65.38
2023-02-19T14:02:32.359Z,72.51
2023-02-19T14:05:03.628Z,76.80
2023-02-19T14:07:51.205Z,81.14
2023-02-19T14:10:36.651Z,85.64
2023-02-19T14:13:06.117Z,85.91
2023-02-19T14:15:52.551Z,85.69
2023-02-19T14:18:45.485Z,85.73
2023-02-19T14:21:43.847Z,87.38
2023-02-19T14:24:17.385Z,88.53
2023-02-19T14:26:47.429Z,89.53
2023-02-19T14:29:17.722Z,89.28
2023-02-19T14:31:46.117Z,88.91
2023-02-19T14:34:22.731Z,89.11
2023-02-19T14:37:02.239Z,89.05
2023-02-19T14:39:35.204Z,90.01
2023-02-19T14:42:17.864Z,91.10
2023-02-19T14:44:52.546Z,91.84
2023-02-19T14:47:22.755Z,91.91
2023-02-19T14:49:55.138Z,91.15
2023-02-19T14:52:25.118Z,89.64
2023-02-19T14:55:00.312Z,83.22
2023-02-19T14:57:43.470Z,84.36
2023-02-19T15:00:22.409Z,83.70
2023-02-19T15:02:59.898Z,84.89
2023-02-19T15:05:40.272Z,83.35
2023-02-19T15:08:12.038Z,85.99
2023-02-19T15:10:42.163Z,85.89
2023-02-19T15:13:17.800Z,81.58
2023-02-19T15:15:49.948Z,81.90
2023-02-19T15:18:30.011Z,82.60
2023-02-19T15:21:02.893Z,81.93
2023-02-19T15:23:31.481Z,84.91
2023-02-19T15:25:59.215Z,82.64
2023-02-19T15:28:28.703Z,82.80
2023-02-19T15:30:58.329Z,84.60
2023-02-19T15:33:32.320Z,83.56
2023-02-19T15:36:03.525Z,80.71
2023-02-19T15:38:30.999Z,84.16
2023-02-19T15:40:58.805Z,81.80
2023-02-19T15:43:33.887Z,80.60
2023-02-19T15:46:12.065Z,80.99
2023-02-19T15:48:47.724Z,81.05
2023-02-19T15:51:24.090Z,79.66
2023-02-19T15:53:59.022Z,78.56
2023-02-19T15:56:32.550Z,78.05
2023-02-19T15:59:21.584Z,78.56
2023-02-19T16:01:48.974Z,78.49
2023-02-19T16:04:23.058Z,78.60
2023-02-19T16:06:55.585Z,78.77
2023-02-19T16:09:31.318Z,77.42
2023-02-19T16:12:03.041Z,76.53
2023-02-19T16:14:34.516Z,76.21
2023-02-19T16:17:28.161Z,74.84
2023-02-19T16:20:00.885Z,75.85
2023-02-19T16:22:34.776Z,75.88
2023-02-19T16:25:04.914Z,74.78
2023-02-19T16:27:37.011Z,74.35
2023-02-19T16:30:07.799Z,75.00
2023-02-19T16:32:34.673Z,76.04
2023-02-19T16:35:01.339Z,76.04
2023-02-19T16:37:40.834Z,75.90
2023-02-19T16:40:11.115Z,75.68
2023-02-19T16:43:13.300Z,76.41
2023-02-19T16:45:50.531Z,77.12
2023-02-19T16:48:20.303Z,79.17
2023-02-19T16:50:46.990Z,80.31
2023-02-19T16:53:24.790Z,80.51
2023-02-19T16:55:52.539Z,79.21
2023-02-19T16:58:21.545Z,79.49
2023-02-19T17:00:48.166Z,78.69
2023-02-19T17:03:22.570Z,78.55
2023-02-19T17:05:54.489Z,78.31
2023-02-19T17:08:33.888Z,78.19
2023-02-19T17:11:24.750Z,78.18
2023-02-19T17:13:51.512Z,79.21
2023-02-19T17:16:21.849Z,79.91
2023-02-19T17:18:51.879Z,80.41
2023-02-19T17:21:21.093Z,79.38
2023-02-19T17:23:47.546Z,78.60
2023-02-19T17:26:15.532Z,78.47
2023-02-19T17:28:42.157Z,76.96
2023-02-19T17:31:11.319Z,76.37
2023-02-19T17:33:38.896Z,77.11
2023-02-19T17:36:06.148Z,74.05
2023-02-19T17:38:34.801Z,73.67
2023-02-19T17:41:03.982Z,73.86
2023-02-19T17:43:30.558Z,74.04
2023-02-19T17:45:57.359Z,74.27
2023-02-19T17:48:24.419Z,75.02
2023-02-19T17:50:52.382Z,74.44
2023-02-19T17:53:21.236Z,73.81
2023-02-19T17:55:47.862Z,74.40
2023-02-19T17:58:17.209Z,73.75
2023-02-19T18:00:46.259Z,73.10
2023-02-19T18:03:15.524Z,73.58
2023-02-19T18:05:44.808Z,74.16
2023-02-19T18:08:11.946Z,72.95
2023-02-19T18:10:38.623Z,73.34
2023-02-19T18:13:07.558Z,73.89
2023-02-19T18:15:36.634Z,73.14
2023-02-19T18:18:09.883Z,72.96
2023-02-19T18:20:41.597Z,73.99
2023-02-19T18:23:10.785Z,73.75
2023-02-19T18:25:37.449Z,72.87
2023-02-19T18:28:06.558Z,73.34
2023-02-19T18:30:35.469Z,73.13
2023-02-19T18:33:07.468Z,73.65
2023-02-19T18:35:34.923Z,74.13
2023-02-19T18:38:03.782Z,74.25
2023-02-19T18:40:32.870Z,74.45
2023-02-19T18:43:01.798Z,75.18
2023-02-19T18:45:29.829Z,75.91
2023-02-19T18:47:59.205Z,74.91
2023-02-19T18:50:28.771Z,74.34
2023-02-19T18:53:00.270Z,74.22
2023-02-19T18:55:29.216Z,81.05
2023-02-19T18:57:58.560Z,75.94
2023-02-19T19:04:17.739Z,74.41
2023-02-19T19:06:46.841Z,73.69
2023-02-19T19:09:15.704Z,73.30
2023-02-19T19:11:44.551Z,74.22
2023-02-19T19:14:11.374Z,73.77
2023-02-19T19:16:43.195Z,73.52
2023-02-19T19:19:11.047Z,73.20
2023-02-19T19:21:37.942Z,73.51
2023-02-19T19:24:05.008Z,73.66
2023-02-19T19:26:32.152Z,73.79
2023-02-19T19:28:58.927Z,74.15
2023-02-19T19:31:26.367Z,74.13
2023-02-19T19:33:55.656Z,75.87
2023-02-19T19:36:25.747Z,76.69
2023-02-19T19:38:52.580Z,74.85
2023-02-19T19:41:20.336Z,75.30
2023-02-19T19:43:51.965Z,74.80
2023-02-19T19:46:19.957Z,75.40
2023-02-19T19:48:48.037Z,75.73
2023-02-19T19:51:14.941Z,76.01
2023-02-19T19:53:47.426Z,76.49
2023-02-19T19:56:14.652Z,75.37
2023-02-19T19:58:45.817Z,75.61
2023-02-19T20:01:12.826Z,76.15
2023-02-19T20:03:42.208Z,75.91
2023-02-19T20:06:08.665Z,75.24
2023-02-19T20:08:35.820Z,74.59
2023-02-19T20:11:03.385Z,74.31
2023-02-19T20:13:31.112Z,73.80
2023-02-19T20:16:00.129Z,73.64
2023-02-19T20:18:27.625Z,72.86
2023-02-19T20:20:54.217Z,72.27
2023-02-19T20:23:20.889Z,72.58
2023-02-19T20:25:49.967Z,72.47
2023-02-19T20:28:17.017Z,72.32
2023-02-19T20:30:43.899Z,72.65
2023-02-19T20:33:10.770Z,72.85
2023-02-19T20:35:40.722Z,73.87
2023-02-19T20:38:09.648Z,72.57
2023-02-19T20:40:36.316Z,73.00
2023-02-19T20:43:05.270Z,73.05
2023-02-19T20:45:34.045Z,72.95
2023-02-19T20:48:01.402Z,74.05
2023-02-19T20:50:30.359Z,73.67
2023-02-19T20:52:59.711Z,73.40
2023-02-19T20:55:29.774Z,73.58
2023-02-19T20:57:58.879Z,73.76
2023-02-19T21:00:28.103Z,73.47
2023-02-19T21:02:57.034Z,72.41
2023-02-19T21:05:26.299Z,72.96
2023-02-19T21:07:55.634Z,72.43
2023-02-19T21:10:27.128Z,73.36
2023-02-19T21:12:54.530Z,72.22
2023-02-19T21:15:23.900Z,73.66
2023-02-19T21:17:50.567Z,72.49
2023-02-19T21:20:22.798Z,72.61
2023-02-19T21:22:51.636Z,72.47
2023-02-19T21:25:20.941Z,72.07
2023-02-19T21:27:47.526Z,73.18
2023-02-19T21:30:16.501Z,72.42
2023-02-19T21:32:43.191Z,72.52
2023-02-19T21:35:10.247Z,73.36
2023-02-19T21:37:41.984Z,73.38
2023-02-19T21:40:11.806Z,73.57
2023-02-19T21:42:38.563Z,73.53
2023-02-19T21:45:05.762Z,73.45
2023-02-19T21:47:32.472Z,73.72
2023-02-19T21:50:01.425Z,73.28
2023-02-19T21:52:31.522Z,72.20
2023-02-19T21:54:58.542Z,71.68
2023-02-19T21:57:27.327Z,70.35
2023-02-19T21:59:56.809Z,70.59
2023-02-19T22:02:25.766Z,69.38
2023-02-19T22:04:53.734Z,67.83
2023-02-19T22:07:30.708Z,66.50
2023-02-19T22:09:59.676Z,66.36
2023-02-19T22:12:28.646Z,65.15
2023-02-19T22:14:57.646Z,64.98
2023-02-19T22:17:24.321Z,65.04
2023-02-19T22:19:50.941Z,63.86
2023-02-19T22:22:17.569Z,64.20
2023-02-19T22:24:44.468Z,63.22
2023-02-19T22:27:13.590Z,62.91
2023-02-19T22:29:40.320Z,63.22
2023-02-19T22:32:07.367Z,63.44
2023-02-19T22:34:43.189Z,64.10
2023-02-19T22:37:13.051Z,63.40
2023-02-19T22:39:39.831Z,62.98
2023-02-19T22:42:06.640Z,63.23
2023-02-19T22:44:34.500Z,63.90
2023-02-19T22:47:01.114Z,63.96
2023-02-19T22:49:27.685Z,64.07
2023-02-19T22:52:03.574Z,62.59
2023-02-19T22:54:32.408Z,62.99
2023-02-19T22:57:01.389Z,63.31
2023-02-19T22:59:28.096Z,63.18
2023-02-19T23:01:55.100Z,63.70
2023-02-19T23:04:25.282Z,62.74
2023-02-19T23:06:54.733Z,63.63
2023-02-19T23:09:28.234Z,62.57
2023-02-19T23:12:07.240Z,62.23
2023-02-19T23:14:38.747Z,61.96
2023-02-19T23:17:08.100Z,61.49
2023-02-19T23:19:39.576Z,61.87
2023-02-19T23:22:08.710Z,61.31
2023-02-19T23:24:35.320Z,61.49
2023-02-19T23:27:02.122Z,61.17
2023-02-19T23:29:31.006Z,60.75
2023-02-19T23:31:58.549Z,60.75
2023-02-19T23:34:25.165Z,60.69
2023-02-19T23:36:52.092Z,61.94
2023-02-19T23:39:21.284Z,60.83
2023-02-19T23:41:56.719Z,61.24
2023-02-19T23:44:23.767Z,61.22
2023-02-19T23:46:53.256Z,61.36
2023-02-19T23:49:20.042Z,61.45
2023-02-19T23:51:49.128Z,61.49
2023-02-19T23:54:18.177Z,61.41
2023-02-19T23:56:47.367Z,61.17
2023-02-19T23:59:14.278Z,60.71
